»·PEaware :: QXE2255 KFAT-KSMF

QXE2255 :: KFAT-KSMF

FLIGHT INFORMATION

Flight Status: Arrived
Operator:
Horizon Air
More flights by this operator :: More flights under this callsign
Pilot: Erik S. (14620)
Aircraft: DEHAVILLAND DASH 8 400
(DH8D)
More flights by this aircraft type
Origin: KFAT Fresno Yosemite Intl
United States
Destination: KSMF Sacramento Intl
United States
More flights between these airports :: More routes between these airports
Route: +LIN SAC
File this flight plan on PilotEdge
Remarks:
Altitude:
(Current/Filed)
20,000ft
Speed:
(Current/Filed)
321kts
Departed: 16-Apr-19 11:04 AM
Arrived: 16-Apr-19 11:45 AM
Distance/Time
Traveled:
145nm/0:41
Distance/Time
To Go:
Arrived

Flight Plot

Page will automatically refresh every two minutes.

Flight plan parsing failed; only flown route is shown


Map Options




Map Legend


Flown Route
Filed Route
Departure Airport
Arrival Airport
Navaid (VOR, NDB)
Fix

Horizontal Profiles

Position Reports

Time Latitude Longitude Heading Altitude Ground
Speed
16-Apr-19 10:38 36.771691 -119.717476 191 343ft 0kts
16-Apr-19 10:39 36.771691 -119.717476 191 343ft 0kts
16-Apr-19 10:40 36.771691 -119.717476 191 343ft 0kts
16-Apr-19 10:41 36.771691 -119.717476 191 343ft 0kts
16-Apr-19 10:42 36.771691 -119.717476 191 343ft 0kts
16-Apr-19 10:43 36.771691 -119.717476 191 343ft 0kts
16-Apr-19 10:44 36.771691 -119.717476 191 343ft 0kts
16-Apr-19 10:45 36.771691 -119.717476 191 343ft 0kts
16-Apr-19 10:46 36.771691 -119.717476 191 343ft 0kts
16-Apr-19 10:47 36.771691 -119.717476 191 343ft 0kts
16-Apr-19 10:48 36.771691 -119.717476 191 343ft 0kts
16-Apr-19 10:49 36.771691 -119.717476 191 343ft 0kts
16-Apr-19 10:50 36.771691 -119.717476 191 343ft 0kts
16-Apr-19 10:51 36.771691 -119.717476 191 343ft 0kts
16-Apr-19 10:52 36.771691 -119.717476 191 343ft 0kts
16-Apr-19 10:53 36.771884 -119.717426 191 343ft 2kts
16-Apr-19 10:54 36.772121 -119.717365 191 343ft 0kts
16-Apr-19 10:55 36.772121 -119.717365 191 343ft 0kts
16-Apr-19 10:56 36.772121 -119.717365 191 343ft 0kts
16-Apr-19 10:57 36.772735 -119.717015 67 343ft 10kts
16-Apr-19 10:58 36.770713 -119.713246 125 343ft 19kts
16-Apr-19 10:59 36.767806 -119.708132 120 343ft 16kts
16-Apr-19 11:00 36.768288 -119.704193 34 343ft 0kts
16-Apr-19 11:01 36.768288 -119.704193 34 343ft 0kts
16-Apr-19 11:02 36.768661 -119.703895 24 343ft 12kts
16-Apr-19 11:03 36.784002 -119.730596 303 1286ft 145kts
16-Apr-19 11:04 36.812063 -119.779947 306 2965ft 209kts
16-Apr-19 11:05 36.846204 -119.841826 305 2997ft 229kts
16-Apr-19 11:06 36.886441 -119.898527 323 4428ft 222kts
16-Apr-19 11:07 36.935504 -119.943238 324 7334ft 222kts
16-Apr-19 11:08 36.986166 -119.989497 323 9812ft 241kts
16-Apr-19 11:09 37.045561 -120.043810 322 10744ft 275kts
16-Apr-19 11:10 37.100047 -120.093560 322 13616ft 230kts
16-Apr-19 11:11 37.149960 -120.140138 323 15458ft 226kts
16-Apr-19 11:12 37.199850 -120.186581 324 17017ft 225kts
16-Apr-19 11:13 37.250487 -120.233673 325 18024ft 237kts
16-Apr-19 11:14 37.305117 -120.284052 325 18110ft 254kts
16-Apr-19 11:15 37.361927 -120.336630 325 18113ft 260kts
16-Apr-19 11:16 37.420540 -120.390864 325 18112ft 268kts
16-Apr-19 11:17 37.480299 -120.446306 325 18118ft 275kts
16-Apr-19 11:18 37.540555 -120.502398 325 18117ft 277kts
16-Apr-19 11:19 37.601406 -120.559083 325 17991ft 278kts
16-Apr-19 11:20 37.659684 -120.613371 325 16607ft 250kts
16-Apr-19 11:21 37.713088 -120.662937 324 15140ft 244kts
16-Apr-19 11:22 37.766880 -120.712997 323 13668ft 246kts
16-Apr-19 11:23 37.820891 -120.763454 323 12208ft 249kts
16-Apr-19 11:24 37.876328 -120.815707 322 10715ft 253kts
16-Apr-19 11:25 37.929714 -120.866182 322 10124ft 231kts
16-Apr-19 11:26 37.979019 -120.913056 323 10032ft 230kts
16-Apr-19 11:27 38.029272 -120.960770 320 9996ft 237kts
16-Apr-19 11:28 38.078815 -121.012964 311 9995ft 232kts
16-Apr-19 11:29 38.120298 -121.073757 312 9647ft 230kts
16-Apr-19 11:30 38.163324 -121.136794 311 8339ft 247kts
16-Apr-19 11:31 38.207728 -121.201930 311 6658ft 240kts
16-Apr-19 11:32 38.248765 -121.262621 311 6002ft 217kts
16-Apr-19 11:33 38.280142 -121.309263 309 5966ft 218kts
16-Apr-19 11:34 38.319632 -121.367345 308 5721ft 223kts
16-Apr-19 11:35 38.360392 -121.427796 310 4760ft 230kts
16-Apr-19 11:36 38.400651 -121.476756 320 3776ft 227kts
16-Apr-19 11:37 38.445359 -121.521138 322 2550ft 186kts
16-Apr-19 11:38 38.485117 -121.560759 320 2005ft 174kts
16-Apr-19 11:39 38.520438 -121.582226 354 1994ft 181kts
16-Apr-19 11:40 38.571673 -121.582706 0 2041ft 181kts
16-Apr-19 11:41 38.619310 -121.581332 359 1480ft 150kts
16-Apr-19 11:42 38.652470 -121.580771 356 696ft 116kts
16-Apr-19 11:43 38.684318 -121.580431 357 64ft 112kts
16-Apr-19 11:44 38.696821 -121.580821 283 35ft 10kts
16-Apr-19 11:45 38.696849 -121.581372 268 35ft 0kts
16-Apr-19 11:46 38.696895 -121.584761 270 35ft 20kts
16-Apr-19 11:47 38.695294 -121.586949 175 35ft 6kts
16-Apr-19 11:48 38.694801 -121.586953 182 35ft 0kts
16-Apr-19 11:49 38.694801 -121.586953 182 35ft 0kts
16-Apr-19 11:50 38.694801 -121.586953 182 35ft 0kts
16-Apr-19 11:51 38.694801 -121.586953 182 35ft 0kts
16-Apr-19 11:52 38.694801 -121.586953 182 35ft 0kts
16-Apr-19 11:53 38.694801 -121.586953 182 35ft 0kts
16-Apr-19 11:54 38.694801 -121.586953 182 35ft 0kts

Navigation Log

Ident Type
Flight plan parsing failed, navigation log unavailable